sensor_id;sensor_type;location;lat;lon;timestamp;P1;durP1;ratioP1;P2;durP2;ratioP2
20431;SDS011;10375;49.136;10.366;2023-04-15T00:00:55;6.67;;;5.97;;
20431;SDS011;10375;49.136;10.366;2023-04-15T00:03:24;5.80;;;5.20;;
20431;SDS011;10375;49.136;10.366;2023-04-15T00:05:51;5.27;;;4.77;;
20431;SDS011;10375;49.136;10.366;2023-04-15T00:08:18;5.57;;;4.97;;
20431;SDS011;10375;49.136;10.366;2023-04-15T00:10:45;6.03;;;5.23;;
20431;SDS011;10375;49.136;10.366;2023-04-15T00:13:13;6.50;;;5.13;;
20431;SDS011;10375;49.136;10.366;2023-04-15T00:15:40;7.27;;;4.63;;
20431;SDS011;10375;49.136;10.366;2023-04-15T00:18:08;5.20;;;4.70;;
20431;SDS011;10375;49.136;10.366;2023-04-15T00:20:35;6.87;;;4.97;;
20431;SDS011;10375;49.136;10.366;2023-04-15T00:23:03;6.03;;;4.93;;
20431;SDS011;10375;49.136;10.366;2023-04-15T00:25:30;5.97;;;4.67;;
20431;SDS011;10375;49.136;10.366;2023-04-15T00:27:58;5.27;;;4.37;;
20431;SDS011;10375;49.136;10.366;2023-04-15T00:30:25;7.20;;;4.77;;
20431;SDS011;10375;49.136;10.366;2023-04-15T00:32:52;5.77;;;4.53;;
20431;SDS011;10375;49.136;10.366;2023-04-15T00:35:19;5.67;;;4.97;;
20431;SDS011;10375;49.136;10.366;2023-04-15T00:37:47;5.83;;;4.43;;
20431;SDS011;10375;49.136;10.366;2023-04-15T00:40:14;10.57;;;4.90;;
20431;SDS011;10375;49.136;10.366;2023-04-15T00:42:46;5.57;;;4.30;;
20431;SDS011;10375;49.136;10.366;2023-04-15T00:45:13;5.30;;;4.37;;
20431;SDS011;10375;49.136;10.366;2023-04-15T00:47:41;6.27;;;4.23;;
20431;SDS011;10375;49.136;10.366;2023-04-15T00:50:09;8.57;;;4.80;;
20431;SDS011;10375;49.136;10.366;2023-04-15T00:52:38;10.83;;;5.00;;
20431;SDS011;10375;49.136;10.366;2023-04-15T00:55:06;11.33;;;5.27;;
20431;SDS011;10375;49.136;10.366;2023-04-15T00:57:34;6.57;;;5.00;;
20431;SDS011;10375;49.136;10.366;2023-04-15T01:00:02;8.77;;;5.50;;
20431;SDS011;10375;49.136;10.366;2023-04-15T01:02:30;8.57;;;5.53;;
20431;SDS011;10375;49.136;10.366;2023-04-15T01:04:59;5.20;;;4.60;;
20431;SDS011;10375;49.136;10.366;2023-04-15T01:07:26;8.63;;;4.90;;
20431;SDS011;10375;49.136;10.366;2023-04-15T01:09:53;8.00;;;4.57;;
20431;SDS011;10375;49.136;10.366;2023-04-15T01:12:20;5.33;;;4.00;;
20431;SDS011;10375;49.136;10.366;2023-04-15T01:14:50;5.00;;;4.27;;
20431;SDS011;10375;49.136;10.366;2023-04-15T01:17:17;6.93;;;4.57;;
20431;SDS011;10375;49.136;10.366;2023-04-15T01:19:45;6.07;;;4.93;;
20431;SDS011;10375;49.136;10.366;2023-04-15T01:22:12;8.57;;;5.47;;
20431;SDS011;10375;49.136;10.366;2023-04-15T01:24:39;7.57;;;5.43;;
20431;SDS011;10375;49.136;10.366;2023-04-15T01:27:09;7.37;;;4.73;;
20431;SDS011;10375;49.136;10.366;2023-04-15T01:29:37;8.77;;;4.97;;
20431;SDS011;10375;49.136;10.366;2023-04-15T01:32:05;7.03;;;4.97;;
20431;SDS011;10375;49.136;10.366;2023-04-15T01:34:32;7.27;;;5.53;;
20431;SDS011;10375;49.136;10.366;2023-04-15T01:37:01;6.67;;;5.07;;
20431;SDS011;10375;49.136;10.366;2023-04-15T01:39:28;12.47;;;6.07;;
20431;SDS011;10375;49.136;10.366;2023-04-15T01:41:55;8.40;;;5.63;;
20431;SDS011;10375;49.136;10.366;2023-04-15T01:44:22;8.13;;;5.03;;
20431;SDS011;10375;49.136;10.366;2023-04-15T01:46:49;7.53;;;5.50;;
20431;SDS011;10375;49.136;10.366;2023-04-15T01:49:17;9.13;;;4.33;;
20431;SDS011;10375;49.136;10.366;2023-04-15T01:51:44;14.97;;;5.70;;
20431;SDS011;10375;49.136;10.366;2023-04-15T01:54:11;5.70;;;4.87;;
20431;SDS011;10375;49.136;10.366;2023-04-15T01:56:38;5.83;;;4.90;;
20431;SDS011;10375;49.136;10.366;2023-04-15T01:59:05;5.60;;;4.83;;
20431;SDS011;10375;49.136;10.366;2023-04-15T02:01:32;7.33;;;5.13;;
20431;SDS011;10375;49.136;10.366;2023-04-15T02:03:59;5.83;;;4.20;;
20431;SDS011;10375;49.136;10.366;2023-04-15T02:06:27;5.80;;;4.70;;
20431;SDS011;10375;49.136;10.366;2023-04-15T02:08:54;7.47;;;4.57;;
20431;SDS011;10375;49.136;10.366;2023-04-15T02:11:21;6.13;;;4.50;;
20431;SDS011;10375;49.136;10.366;2023-04-15T02:13:48;5.50;;;4.07;;
20431;SDS011;10375;49.136;10.366;2023-04-15T02:16:16;6.20;;;4.27;;
20431;SDS011;10375;49.136;10.366;2023-04-15T02:18:44;5.87;;;4.47;;
20431;SDS011;10375;49.136;10.366;2023-04-15T02:21:12;6.87;;;4.70;;
20431;SDS011;10375;49.136;10.366;2023-04-15T02:23:40;8.90;;;4.57;;
20431;SDS011;10375;49.136;10.366;2023-04-15T02:26:07;6.67;;;5.03;;
20431;SDS011;10375;49.136;10.366;2023-04-15T02:28:34;8.03;;;5.67;;
20431;SDS011;10375;49.136;10.366;2023-04-15T02:31:05;7.47;;;5.00;;
20431;SDS011;10375;49.136;10.366;2023-04-15T02:33:33;6.93;;;5.30;;
20431;SDS011;10375;49.136;10.366;2023-04-15T02:36:02;7.53;;;5.33;;
20431;SDS011;10375;49.136;10.366;2023-04-15T02:38:29;8.30;;;5.50;;
20431;SDS011;10375;49.136;10.366;2023-04-15T02:40:57;8.83;;;5.40;;
20431;SDS011;10375;49.136;10.366;2023-04-15T02:43:24;11.67;;;5.17;;
20431;SDS011;10375;49.136;10.366;2023-04-15T02:45:51;8.93;;;5.10;;
20431;SDS011;10375;49.136;10.366;2023-04-15T02:48:18;10.37;;;5.10;;
20431;SDS011;10375;49.136;10.366;2023-04-15T02:50:45;8.67;;;5.57;;
20431;SDS011;10375;49.136;10.366;2023-04-15T02:53:13;8.20;;;6.23;;
20431;SDS011;10375;49.136;10.366;2023-04-15T02:55:40;6.17;;;5.57;;
20431;SDS011;10375;49.136;10.366;2023-04-15T02:58:08;8.23;;;5.33;;
20431;SDS011;10375;49.136;10.366;2023-04-15T03:00:35;8.40;;;5.60;;
20431;SDS011;10375;49.136;10.366;2023-04-15T03:03:02;7.10;;;4.97;;
20431;SDS011;10375;49.136;10.366;2023-04-15T03:05:31;10.57;;;6.37;;
20431;SDS011;10375;49.136;10.366;2023-04-15T03:07:58;7.30;;;5.00;;
20431;SDS011;10375;49.136;10.366;2023-04-15T03:10:26;10.00;;;5.23;;
20431;SDS011;10375;49.136;10.366;2023-04-15T03:12:53;14.83;;;5.97;;
20431;SDS011;10375;49.136;10.366;2023-04-15T03:15:21;7.03;;;4.70;;
20431;SDS011;10375;49.136;10.366;2023-04-15T03:17:48;7.60;;;4.60;;
20431;SDS011;10375;49.136;10.366;2023-04-15T03:20:15;9.70;;;5.57;;
20431;SDS011;10375;49.136;10.366;2023-04-15T03:22:42;11.23;;;5.87;;
20431;SDS011;10375;49.136;10.366;2023-04-15T03:25:09;9.00;;;5.87;;
20431;SDS011;10375;49.136;10.366;2023-04-15T03:27:37;7.40;;;5.43;;
20431;SDS011;10375;49.136;10.366;2023-04-15T03:30:04;9.13;;;6.03;;
20431;SDS011;10375;49.136;10.366;2023-04-15T03:32:33;9.13;;;5.83;;
20431;SDS011;10375;49.136;10.366;2023-04-15T03:35:00;9.10;;;6.07;;
20431;SDS011;10375;49.136;10.366;2023-04-15T03:37:27;10.83;;;5.97;;
20431;SDS011;10375;49.136;10.366;2023-04-15T03:39:54;8.63;;;5.50;;
20431;SDS011;10375;49.136;10.366;2023-04-15T03:42:21;7.70;;;6.10;;
20431;SDS011;10375;49.136;10.366;2023-04-15T03:44:49;7.33;;;5.77;;
20431;SDS011;10375;49.136;10.366;2023-04-15T03:47:16;6.63;;;5.90;;
20431;SDS011;10375;49.136;10.366;2023-04-15T03:49:43;6.23;;;5.43;;
20431;SDS011;10375;49.136;10.366;2023-04-15T03:52:10;6.73;;;5.17;;
20431;SDS011;10375;49.136;10.366;2023-04-15T03:54:37;12.67;;;6.00;;
20431;SDS011;10375;49.136;10.366;2023-04-15T03:57:04;5.67;;;5.07;;
20431;SDS011;10375;49.136;10.366;2023-04-15T03:59:31;9.97;;;5.30;;
20431;SDS011;10375;49.136;10.366;2023-04-15T04:01:58;5.57;;;4.87;;
20431;SDS011;10375;49.136;10.366;2023-04-15T04:04:26;5.97;;;5.17;;
20431;SDS011;10375;49.136;10.366;2023-04-15T04:06:53;9.33;;;4.87;;
20431;SDS011;10375;49.136;10.366;2023-04-15T04:09:20;5.60;;;5.00;;
20431;SDS011;10375;49.136;10.366;2023-04-15T04:11:47;8.57;;;5.43;;
20431;SDS011;10375;49.136;10.366;2023-04-15T04:14:14;7.73;;;5.40;;
20431;SDS011;10375;49.136;10.366;2023-04-15T04:16:41;6.77;;;5.40;;
20431;SDS011;10375;49.136;10.366;2023-04-15T04:19:08;10.10;;;5.83;;
20431;SDS011;10375;49.136;10.366;2023-04-15T04:21:35;7.77;;;6.13;;
20431;SDS011;10375;49.136;10.366;2023-04-15T04:24:02;7.00;;;5.33;;
20431;SDS011;10375;49.136;10.366;2023-04-15T04:26:29;5.70;;;4.97;;
20431;SDS011;10375;49.136;10.366;2023-04-15T04:28:57;9.77;;;5.80;;
20431;SDS011;10375;49.136;10.366;2023-04-15T04:31:24;6.77;;;5.80;;
20431;SDS011;10375;49.136;10.366;2023-04-15T04:33:51;11.47;;;5.83;;
20431;SDS011;10375;49.136;10.366;2023-04-15T04:36:18;7.63;;;5.63;;
20431;SDS011;10375;49.136;10.366;2023-04-15T04:38:45;9.63;;;5.87;;
20431;SDS011;10375;49.136;10.366;2023-04-15T04:41:12;19.53;;;6.70;;
20431;SDS011;10375;49.136;10.366;2023-04-15T04:43:39;22.10;;;6.90;;
20431;SDS011;10375;49.136;10.366;2023-04-15T04:46:07;23.27;;;7.67;;
20431;SDS011;10375;49.136;10.366;2023-04-15T04:48:34;9.13;;;5.90;;
20431;SDS011;10375;49.136;10.366;2023-04-15T04:51:01;8.67;;;6.20;;
20431;SDS011;10375;49.136;10.366;2023-04-15T04:53:29;45.47;;;8.73;;
20431;SDS011;10375;49.136;10.366;2023-04-15T04:55:56;32.77;;;6.87;;
20431;SDS011;10375;49.136;10.366;2023-04-15T04:58:24;9.20;;;6.13;;
20431;SDS011;10375;49.136;10.366;2023-04-15T05:00:51;14.63;;;6.77;;
20431;SDS011;10375;49.136;10.366;2023-04-15T05:03:19;14.27;;;7.40;;
20431;SDS011;10375;49.136;10.366;2023-04-15T05:05:47;50.13;;;9.83;;
20431;SDS011;10375;49.136;10.366;2023-04-15T05:08:14;47.47;;;9.20;;
20431;SDS011;10375;49.136;10.366;2023-04-15T05:10:42;13.23;;;7.40;;
20431;SDS011;10375;49.136;10.366;2023-04-15T05:13:09;24.23;;;7.13;;
20431;SDS011;10375;49.136;10.366;2023-04-15T05:15:36;9.40;;;6.63;;
20431;SDS011;10375;49.136;10.366;2023-04-15T05:18:06;8.20;;;6.30;;
20431;SDS011;10375;49.136;10.366;2023-04-15T05:20:33;10.47;;;6.70;;
20431;SDS011;10375;49.136;10.366;2023-04-15T05:23:01;11.17;;;7.03;;
20431;SDS011;10375;49.136;10.366;2023-04-15T05:25:28;11.43;;;7.57;;
20431;SDS011;10375;49.136;10.366;2023-04-15T05:27:55;7.80;;;6.20;;
20431;SDS011;10375;49.136;10.366;2023-04-15T05:30:22;10.33;;;6.93;;
20431;SDS011;10375;49.136;10.366;2023-04-15T05:32:50;10.73;;;6.43;;
20431;SDS011;10375;49.136;10.366;2023-04-15T05:35:17;8.13;;;6.30;;
20431;SDS011;10375;49.136;10.366;2023-04-15T05:37:44;13.40;;;7.00;;
20431;SDS011;10375;49.136;10.366;2023-04-15T05:40:11;12.37;;;6.70;;
20431;SDS011;10375;49.136;10.366;2023-04-15T05:42:39;8.00;;;6.10;;
20431;SDS011;10375;49.136;10.366;2023-04-15T05:45:06;10.07;;;6.30;;
20431;SDS011;10375;49.136;10.366;2023-04-15T05:47:34;9.00;;;6.30;;
20431;SDS011;10375;49.136;10.366;2023-04-15T05:50:03;7.73;;;6.63;;
20431;SDS011;10375;49.136;10.366;2023-04-15T05:52:30;12.30;;;7.23;;
20431;SDS011;10375;49.136;10.366;2023-04-15T05:54:58;9.63;;;7.10;;
20431;SDS011;10375;49.136;10.366;2023-04-15T05:57:25;8.60;;;7.40;;
20431;SDS011;10375;49.136;10.366;2023-04-15T05:59:52;9.13;;;6.83;;
20431;SDS011;10375;49.136;10.366;2023-04-15T06:02:20;8.93;;;7.00;;
20431;SDS011;10375;49.136;10.366;2023-04-15T06:04:47;10.37;;;6.83;;
20431;SDS011;10375;49.136;10.366;2023-04-15T06:07:15;17.83;;;8.80;;
20431;SDS011;10375;49.136;10.366;2023-04-15T06:09:42;22.07;;;9.23;;
20431;SDS011;10375;49.136;10.366;2023-04-15T06:12:10;10.67;;;8.47;;
20431;SDS011;10375;49.136;10.366;2023-04-15T06:14:38;11.87;;;8.57;;
20431;SDS011;10375;49.136;10.366;2023-04-15T06:17:06;15.00;;;8.47;;
20431;SDS011;10375;49.136;10.366;2023-04-15T06:19:33;15.17;;;9.63;;
20431;SDS011;10375;49.136;10.366;2023-04-15T06:22:02;12.33;;;9.23;;
20431;SDS011;10375;49.136;10.366;2023-04-15T06:24:29;14.00;;;8.10;;
20431;SDS011;10375;49.136;10.366;2023-04-15T06:26:56;9.93;;;5.97;;
20431;SDS011;10375;49.136;10.366;2023-04-15T06:29:23;7.57;;;6.67;;
20431;SDS011;10375;49.136;10.366;2023-04-15T06:31:51;7.77;;;6.63;;
20431;SDS011;10375;49.136;10.366;2023-04-15T06:34:18;11.50;;;6.93;;
20431;SDS011;10375;49.136;10.366;2023-04-15T06:36:46;10.17;;;6.90;;
20431;SDS011;10375;49.136;10.366;2023-04-15T06:39:13;38.07;;;9.67;;
20431;SDS011;10375;49.136;10.366;2023-04-15T06:41:40;14.87;;;6.00;;
20431;SDS011;10375;49.136;10.366;2023-04-15T06:44:08;11.50;;;6.13;;
20431;SDS011;10375;49.136;10.366;2023-04-15T06:46:35;13.18;;;6.90;;
20431;SDS011;10375;49.136;10.366;2023-04-15T06:49:02;7.93;;;6.33;;
20431;SDS011;10375;49.136;10.366;2023-04-15T06:51:30;9.77;;;6.30;;
20431;SDS011;10375;49.136;10.366;2023-04-15T06:53:58;9.13;;;6.73;;
20431;SDS011;10375;49.136;10.366;2023-04-15T06:56:25;8.67;;;6.67;;
20431;SDS011;10375;49.136;10.366;2023-04-15T06:58:52;8.53;;;6.77;;
20431;SDS011;10375;49.136;10.366;2023-04-15T07:01:19;14.97;;;6.80;;
20431;SDS011;10375;49.136;10.366;2023-04-15T07:03:47;14.70;;;7.10;;
20431;SDS011;10375;49.136;10.366;2023-04-15T07:06:15;15.90;;;6.67;;
20431;SDS011;10375;49.136;10.366;2023-04-15T07:08:42;6.70;;;5.80;;
20431;SDS011;10375;49.136;10.366;2023-04-15T07:11:09;6.60;;;5.05;;
20431;SDS011;10375;49.136;10.366;2023-04-15T07:13:36;8.68;;;5.80;;
20431;SDS011;10375;49.136;10.366;2023-04-15T07:16:04;6.32;;;5.72;;
20431;SDS011;10375;49.136;10.366;2023-04-15T07:18:31;6.97;;;5.57;;
20431;SDS011;10375;49.136;10.366;2023-04-15T07:20:58;6.27;;;5.20;;
20431;SDS011;10375;49.136;10.366;2023-04-15T07:23:25;11.27;;;6.47;;
20431;SDS011;10375;49.136;10.366;2023-04-15T07:25:53;95.10;;;10.85;;
20431;SDS011;10375;49.136;10.366;2023-04-15T07:28:21;14.52;;;5.60;;
20431;SDS011;10375;49.136;10.366;2023-04-15T07:30:48;7.80;;;5.43;;
20431;SDS011;10375;49.136;10.366;2023-04-15T07:33:15;13.80;;;5.85;;
20431;SDS011;10375;49.136;10.366;2023-04-15T07:35:42;8.75;;;5.53;;
20431;SDS011;10375;49.136;10.366;2023-04-15T07:38:10;8.23;;;5.93;;
20431;SDS011;10375;49.136;10.366;2023-04-15T07:40:40;9.25;;;5.22;;
20431;SDS011;10375;49.136;10.366;2023-04-15T07:43:07;12.10;;;5.07;;
20431;SDS011;10375;49.136;10.366;2023-04-15T07:45:35;10.70;;;5.40;;
20431;SDS011;10375;49.136;10.366;2023-04-15T07:48:02;8.55;;;5.40;;
20431;SDS011;10375;49.136;10.366;2023-04-15T07:50:29;5.55;;;5.00;;
20431;SDS011;10375;49.136;10.366;2023-04-15T07:52:56;6.47;;;4.82;;
20431;SDS011;10375;49.136;10.366;2023-04-15T07:55:23;8.65;;;4.53;;
20431;SDS011;10375;49.136;10.366;2023-04-15T07:57:53;6.55;;;4.40;;
20431;SDS011;10375;49.136;10.366;2023-04-15T08:00:20;8.80;;;4.75;;
20431;SDS011;10375;49.136;10.366;2023-04-15T08:02:48;6.75;;;4.13;;
20431;SDS011;10375;49.136;10.366;2023-04-15T08:05:15;9.95;;;4.88;;
20431;SDS011;10375;49.136;10.366;2023-04-15T08:07:43;5.13;;;4.30;;
20431;SDS011;10375;49.136;10.366;2023-04-15T08:10:10;5.47;;;4.43;;
20431;SDS011;10375;49.136;10.366;2023-04-15T08:12:38;5.90;;;4.30;;
20431;SDS011;10375;49.136;10.366;2023-04-15T08:15:05;8.75;;;3.75;;
20431;SDS011;10375;49.136;10.366;2023-04-15T08:17:33;7.40;;;4.03;;
20431;SDS011;10375;49.136;10.366;2023-04-15T08:20:00;6.78;;;4.28;;
20431;SDS011;10375;49.136;10.366;2023-04-15T08:22:27;10.95;;;4.07;;
20431;SDS011;10375;49.136;10.366;2023-04-15T08:24:55;12.10;;;4.53;;
20431;SDS011;10375;49.136;10.366;2023-04-15T08:27:22;6.63;;;4.63;;
20431;SDS011;10375;49.136;10.366;2023-04-15T08:29:49;6.80;;;5.00;;
20431;SDS011;10375;49.136;10.366;2023-04-15T08:32:15;7.63;;;5.30;;
20431;SDS011;10375;49.136;10.366;2023-04-15T08:34:43;11.65;;;4.50;;
20431;SDS011;10375;49.136;10.366;2023-04-15T08:37:10;7.45;;;5.22;;
20431;SDS011;10375;49.136;10.366;2023-04-15T08:39:38;6.80;;;4.50;;
20431;SDS011;10375;49.136;10.366;2023-04-15T08:42:06;7.45;;;4.95;;
20431;SDS011;10375;49.136;10.366;2023-04-15T08:44:42;6.65;;;5.10;;
20431;SDS011;10375;49.136;10.366;2023-04-15T08:47:10;7.50;;;5.05;;
20431;SDS011;10375;49.136;10.366;2023-04-15T08:49:39;5.72;;;4.70;;
20431;SDS011;10375;49.136;10.366;2023-04-15T08:52:08;6.18;;;5.45;;
20431;SDS011;10375;49.136;10.366;2023-04-15T08:54:35;7.30;;;5.68;;
20431;SDS011;10375;49.136;10.366;2023-04-15T08:57:04;8.43;;;4.93;;
20431;SDS011;10375;49.136;10.366;2023-04-15T08:59:32;6.53;;;4.80;;
20431;SDS011;10375;49.136;10.366;2023-04-15T09:01:59;9.52;;;4.90;;
20431;SDS011;10375;49.136;10.366;2023-04-15T09:04:27;5.93;;;4.45;;
20431;SDS011;10375;49.136;10.366;2023-04-15T09:06:54;7.72;;;5.78;;
20431;SDS011;10375;49.136;10.366;2023-04-15T09:09:22;21.63;;;5.55;;
20431;SDS011;10375;49.136;10.366;2023-04-15T09:11:49;5.18;;;4.68;;
20431;SDS011;10375;49.136;10.366;2023-04-15T09:14:17;7.75;;;5.35;;
20431;SDS011;10375;49.136;10.366;2023-04-15T09:17:00;6.22;;;4.85;;
20431;SDS011;10375;49.136;10.366;2023-04-15T09:19:29;6.88;;;4.68;;
20431;SDS011;10375;49.136;10.366;2023-04-15T09:21:58;6.70;;;4.63;;
20431;SDS011;10375;49.136;10.366;2023-04-15T09:24:32;6.03;;;4.50;;
20431;SDS011;10375;49.136;10.366;2023-04-15T09:27:08;5.75;;;4.75;;
20431;SDS011;10375;49.136;10.366;2023-04-15T09:29:36;5.35;;;4.03;;
20431;SDS011;10375;49.136;10.366;2023-04-15T09:32:10;4.72;;;3.65;;
20431;SDS011;10375;49.136;10.366;2023-04-15T09:34:41;5.13;;;4.28;;
20431;SDS011;10375;49.136;10.366;2023-04-15T09:37:08;5.53;;;3.70;;
20431;SDS011;10375;49.136;10.366;2023-04-15T09:39:49;10.32;;;4.40;;
20431;SDS011;10375;49.136;10.366;2023-04-15T09:42:17;5.93;;;4.28;;
20431;SDS011;10375;49.136;10.366;2023-04-15T09:44:50;6.93;;;4.60;;
20431;SDS011;10375;49.136;10.366;2023-04-15T09:47:36;8.05;;;4.28;;
20431;SDS011;10375;49.136;10.366;2023-04-15T09:50:04;4.55;;;3.72;;
20431;SDS011;10375;49.136;10.366;2023-04-15T09:52:31;5.45;;;4.00;;
20431;SDS011;10375;49.136;10.366;2023-04-15T09:54:58;9.23;;;4.03;;
20431;SDS011;10375;49.136;10.366;2023-04-15T09:57:35;8.35;;;3.70;;
20431;SDS011;10375;49.136;10.366;2023-04-15T10:00:04;9.07;;;3.90;;
20431;SDS011;10375;49.136;10.366;2023-04-15T10:02:33;5.88;;;3.70;;
20431;SDS011;10375;49.136;10.366;2023-04-15T10:05:02;3.72;;;3.42;;
20431;SDS011;10375;49.136;10.366;2023-04-15T10:07:29;6.80;;;4.00;;
20431;SDS011;10375;49.136;10.366;2023-04-15T10:09:57;5.57;;;4.43;;
20431;SDS011;10375;49.136;10.366;2023-04-15T10:12:25;5.50;;;4.22;;
20431;SDS011;10375;49.136;10.366;2023-04-15T10:15:03;4.43;;;3.78;;
20431;SDS011;10375;49.136;10.366;2023-04-15T10:17:36;8.00;;;4.07;;
20431;SDS011;10375;49.136;10.366;2023-04-15T10:20:04;8.73;;;3.88;;
20431;SDS011;10375;49.136;10.366;2023-04-15T10:22:41;7.10;;;4.25;;
20431;SDS011;10375;49.136;10.366;2023-04-15T10:25:09;7.32;;;4.20;;
20431;SDS011;10375;49.136;10.366;2023-04-15T10:27:38;7.75;;;4.10;;
20431;SDS011;10375;49.136;10.366;2023-04-15T10:30:07;5.53;;;4.30;;
20431;SDS011;10375;49.136;10.366;2023-04-15T10:32:34;4.50;;;3.55;;
20431;SDS011;10375;49.136;10.366;2023-04-15T10:35:03;5.75;;;3.80;;
20431;SDS011;10375;49.136;10.366;2023-04-15T10:37:36;7.80;;;3.50;;
20431;SDS011;10375;49.136;10.366;2023-04-15T10:40:23;4.22;;;3.30;;
20431;SDS011;10375;49.136;10.366;2023-04-15T10:42:57;5.85;;;3.10;;
20431;SDS011;10375;49.136;10.366;2023-04-15T10:45:31;6.90;;;2.88;;
20431;SDS011;10375;49.136;10.366;2023-04-15T10:48:05;3.10;;;2.47;;
20431;SDS011;10375;49.136;10.366;2023-04-15T10:50:33;7.10;;;2.95;;
20431;SDS011;10375;49.136;10.366;2023-04-15T10:53:02;7.15;;;3.28;;
20431;SDS011;10375;49.136;10.366;2023-04-15T10:55:31;6.70;;;2.63;;
20431;SDS011;10375;49.136;10.366;2023-04-15T10:58:00;7.07;;;3.15;;
20431;SDS011;10375;49.136;10.366;2023-04-15T11:00:29;5.45;;;2.70;;
20431;SDS011;10375;49.136;10.366;2023-04-15T11:02:58;3.53;;;3.00;;
20431;SDS011;10375;49.136;10.366;2023-04-15T11:08:12;4.47;;;2.63;;
20431;SDS011;10375;49.136;10.366;2023-04-15T11:16:12;6.20;;;3.83;;
20431;SDS011;10375;49.136;10.366;2023-04-15T11:18:39;5.25;;;3.97;;
20431;SDS011;10375;49.136;10.366;2023-04-15T11:21:06;4.35;;;3.20;;
20431;SDS011;10375;49.136;10.366;2023-04-15T11:23:36;3.58;;;3.08;;
20431;SDS011;10375;49.136;10.366;2023-04-15T11:26:13;10.43;;;3.78;;
20431;SDS011;10375;49.136;10.366;2023-04-15T11:28:44;4.85;;;3.45;;
20431;SDS011;10375;49.136;10.366;2023-04-15T11:31:12;5.72;;;3.42;;
20431;SDS011;10375;49.136;10.366;2023-04-15T11:33:44;11.50;;;3.70;;
20431;SDS011;10375;49.136;10.366;2023-04-15T11:36:25;5.97;;;3.35;;
20431;SDS011;10375;49.136;10.366;2023-04-15T11:38:53;4.90;;;3.83;;
20431;SDS011;10375;49.136;10.366;2023-04-15T11:41:21;5.28;;;4.35;;
20431;SDS011;10375;49.136;10.366;2023-04-15T11:43:49;5.80;;;4.30;;
20431;SDS011;10375;49.136;10.366;2023-04-15T11:46:19;6.93;;;4.40;;
20431;SDS011;10375;49.136;10.366;2023-04-15T11:48:48;6.32;;;4.22;;
20431;SDS011;10375;49.136;10.366;2023-04-15T11:51:15;10.48;;;4.28;;
20431;SDS011;10375;49.136;10.366;2023-04-15T11:56:19;9.45;;;4.28;;
20431;SDS011;10375;49.136;10.366;2023-04-15T11:58:48;4.15;;;3.65;;
20431;SDS011;10375;49.136;10.366;2023-04-15T12:01:18;6.35;;;4.20;;
20431;SDS011;10375;49.136;10.366;2023-04-15T12:03:46;4.85;;;3.63;;
20431;SDS011;10375;49.136;10.366;2023-04-15T12:06:30;5.13;;;4.40;;
20431;SDS011;10375;49.136;10.366;2023-04-15T12:09:02;8.98;;;3.85;;
20431;SDS011;10375;49.136;10.366;2023-04-15T12:14:10;4.57;;;3.50;;
20431;SDS011;10375;49.136;10.366;2023-04-15T12:16:40;6.13;;;4.13;;
20431;SDS011;10375;49.136;10.366;2023-04-15T12:19:15;4.93;;;4.13;;
20431;SDS011;10375;49.136;10.366;2023-04-15T12:21:45;4.80;;;4.13;;
20431;SDS011;10375;49.136;10.366;2023-04-15T12:24:13;4.60;;;3.63;;
20431;SDS011;10375;49.136;10.366;2023-04-15T12:26:47;6.22;;;4.20;;
20431;SDS011;10375;49.136;10.366;2023-04-15T12:29:17;7.10;;;3.83;;
20431;SDS011;10375;49.136;10.366;2023-04-15T12:31:49;3.58;;;3.20;;
20431;SDS011;10375;49.136;10.366;2023-04-15T12:34:29;5.03;;;3.53;;
20431;SDS011;10375;49.136;10.366;2023-04-15T12:36:59;5.07;;;3.53;;
20431;SDS011;10375;49.136;10.366;2023-04-15T12:39:30;6.03;;;3.72;;
20431;SDS011;10375;49.136;10.366;2023-04-15T12:42:00;17.35;;;3.03;;
20431;SDS011;10375;49.136;10.366;2023-04-15T12:44:27;6.85;;;2.67;;
20431;SDS011;10375;49.136;10.366;2023-04-15T12:46:56;7.25;;;2.58;;
20431;SDS011;10375;49.136;10.366;2023-04-15T12:49:23;2.67;;;2.30;;
20431;SDS011;10375;49.136;10.366;2023-04-15T12:51:53;3.20;;;2.20;;
20431;SDS011;10375;49.136;10.366;2023-04-15T12:54:21;3.83;;;2.70;;
20431;SDS011;10375;49.136;10.366;2023-04-15T12:59:19;4.72;;;3.00;;
20431;SDS011;10375;49.136;10.366;2023-04-15T13:01:47;4.53;;;2.92;;
20431;SDS011;10375;49.136;10.366;2023-04-15T13:04:14;3.38;;;2.42;;
20431;SDS011;10375;49.136;10.366;2023-04-15T13:06:43;3.45;;;2.83;;
20431;SDS011;10375;49.136;10.366;2023-04-15T13:09:11;3.80;;;2.60;;
20431;SDS011;10375;49.136;10.366;2023-04-15T13:11:38;7.50;;;2.92;;
20431;SDS011;10375;49.136;10.366;2023-04-15T13:14:06;3.72;;;2.72;;
20431;SDS011;10375;49.136;10.366;2023-04-15T13:16:34;7.82;;;3.00;;
20431;SDS011;10375;49.136;10.366;2023-04-15T13:19:01;3.20;;;2.75;;
20431;SDS011;10375;49.136;10.366;2023-04-15T13:21:29;4.40;;;2.72;;
20431;SDS011;10375;49.136;10.366;2023-04-15T13:24:01;11.82;;;3.17;;
20431;SDS011;10375;49.136;10.366;2023-04-15T13:26:29;3.92;;;2.75;;
20431;SDS011;10375;49.136;10.366;2023-04-15T13:28:57;2.88;;;2.65;;
20431;SDS011;10375;49.136;10.366;2023-04-15T13:31:24;4.68;;;2.60;;
20431;SDS011;10375;49.136;10.366;2023-04-15T13:33:51;2.20;;;2.00;;
20431;SDS011;10375;49.136;10.366;2023-04-15T13:36:18;3.00;;;1.90;;
20431;SDS011;10375;49.136;10.366;2023-04-15T13:38:45;1.75;;;1.58;;
20431;SDS011;10375;49.136;10.366;2023-04-15T13:41:16;2.63;;;1.95;;
20431;SDS011;10375;49.136;10.366;2023-04-15T13:43:43;2.72;;;2.00;;
20431;SDS011;10375;49.136;10.366;2023-04-15T13:46:10;3.15;;;1.80;;
20431;SDS011;10375;49.136;10.366;2023-04-15T13:48:38;1.70;;;1.60;;
20431;SDS011;10375;49.136;10.366;2023-04-15T13:51:07;2.95;;;1.90;;
20431;SDS011;10375;49.136;10.366;2023-04-15T13:53:35;3.95;;;1.70;;
20431;SDS011;10375;49.136;10.366;2023-04-15T13:56:06;1.50;;;1.40;;
20431;SDS011;10375;49.136;10.366;2023-04-15T13:58:34;1.63;;;1.48;;
20431;SDS011;10375;49.136;10.366;2023-04-15T14:01:02;2.05;;;1.85;;
20431;SDS011;10375;49.136;10.366;2023-04-15T14:03:33;7.00;;;2.03;;
20431;SDS011;10375;49.136;10.366;2023-04-15T14:06:02;2.50;;;1.83;;
20431;SDS011;10375;49.136;10.366;2023-04-15T14:08:30;3.63;;;1.90;;
20431;SDS011;10375;49.136;10.366;2023-04-15T14:10:57;2.80;;;2.00;;
20431;SDS011;10375;49.136;10.366;2023-04-15T14:13:24;4.00;;;1.75;;
20431;SDS011;10375;49.136;10.366;2023-04-15T14:15:51;2.17;;;1.98;;
20431;SDS011;10375;49.136;10.366;2023-04-15T14:18:18;3.28;;;1.50;;
20431;SDS011;10375;49.136;10.366;2023-04-15T14:20:45;3.15;;;2.83;;
20431;SDS011;10375;49.136;10.366;2023-04-15T14:23:12;4.70;;;1.83;;
20431;SDS011;10375;49.136;10.366;2023-04-15T14:25:39;1.50;;;1.40;;
20431;SDS011;10375;49.136;10.366;2023-04-15T14:28:06;2.90;;;1.60;;
20431;SDS011;10375;49.136;10.366;2023-04-15T14:30:33;1.50;;;1.40;;
20431;SDS011;10375;49.136;10.366;2023-04-15T14:33:01;2.92;;;1.80;;
20431;SDS011;10375;49.136;10.366;2023-04-15T14:35:29;1.98;;;1.50;;
20431;SDS011;10375;49.136;10.366;2023-04-15T14:37:56;2.30;;;1.80;;
20431;SDS011;10375;49.136;10.366;2023-04-15T14:40:23;8.30;;;1.77;;
20431;SDS011;10375;49.136;10.366;2023-04-15T14:42:51;4.22;;;1.90;;
20431;SDS011;10375;49.136;10.366;2023-04-15T14:45:18;2.08;;;1.67;;
20431;SDS011;10375;49.136;10.366;2023-04-15T14:47:45;1.95;;;1.50;;
20431;SDS011;10375;49.136;10.366;2023-04-15T14:50:12;2.33;;;1.40;;
20431;SDS011;10375;49.136;10.366;2023-04-15T14:52:39;3.05;;;1.50;;